Avoca, Illinois
Current Conditions -  °F | °C
As of 9:15 PM on Sunday 21 Dec 2014 (Local Time) from KPNT Reporting Station
Overcast Overcast  
Wind Chill: -3°   Ceiling: 3800
Heat Index:   Visibility: 7mi
Dew Point:   Wind: 6mph
Humidity: 94%   Direction: 120°ESE
Pressure: 30.04"   Gusts: NA
Location:  40.7318°N, 88.524°W
Report Text: KPNT 220315Z AUTO 12005KT 7SM OVC038 01/00 A3004 RMK AO2 T00051003
Loading
Personal Weather Stations






























Interactive Weather Map New forecast layout! Learn more

10-Day Weather Forecast

Advertisements
Track Severe Weather on mobile